< < Back
Terminal Aerodrome Forecast


Current Version              Previous Versions:   1  2  3  4  5  6  7  8  9  

Terminal Aerodrome Forecast

179
FTUS42 KFFC 041948 AAA
TAFAHN
TAF AMD
KAHN 041948Z 0420/0518 20010G18KT P6SM SCT015 BKN040
     FM050000 21009KT P6SM BKN025
     FM050600 20008KT 6SM BR OVC006
     FM051000 23006KT 2SM -RA BR OVC004
     FM051700 32010KT 6SM -RA OVC008=



Latest METAR

835
SAUS70 KWBC 050354
MTRAHN
METAR KAHN 050351Z 20005KT 10SM OVC080 19/15 A2992 RMK AO2 SLP130
T01890150


USA.gov is the U.S. government's official web portal to all federal, state and local government web resources and services.